createdAt,value
2019-06-08T00:00:02.644Z,1.20
2019-06-08T00:02:35.590Z,1.30
2019-06-08T00:05:07.650Z,1.30
2019-06-08T00:07:39.942Z,1.27
2019-06-08T00:10:12.728Z,1.50
2019-06-08T00:12:44.554Z,0.93
2019-06-08T00:15:22.336Z,0.90
2019-06-08T00:17:59.369Z,1.13
2019-06-08T00:20:30.466Z,0.80
2019-06-08T00:23:03.356Z,1.30
2019-06-08T00:25:35.205Z,1.00
2019-06-08T00:28:06.702Z,1.27
2019-06-08T00:30:39.225Z,1.10
2019-06-08T00:33:11.563Z,1.17
2019-06-08T00:35:43.207Z,1.10
2019-06-08T00:38:14.904Z,1.27
2019-06-08T00:40:48.335Z,1.60
2019-06-08T00:43:23.727Z,1.37
2019-06-08T00:45:59.048Z,1.30
2019-06-08T00:48:31.405Z,1.00
2019-06-08T00:51:03.063Z,1.13
2019-06-08T00:53:34.567Z,1.00
2019-06-08T00:56:05.984Z,1.10
2019-06-08T00:58:37.539Z,1.30
2019-06-08T01:01:10.718Z,0.97
2019-06-08T01:03:44.814Z,1.00
2019-06-08T01:06:19.123Z,1.37
2019-06-08T01:08:50.546Z,1.67
2019-06-08T01:11:24.625Z,1.20
2019-06-08T01:13:57.923Z,1.00
2019-06-08T01:16:30.133Z,1.17
2019-06-08T01:19:02.099Z,1.10
2019-06-08T01:21:33.574Z,1.20
2019-06-08T01:24:06.972Z,1.00
2019-06-08T01:26:39.525Z,1.07
2019-06-08T01:29:11.294Z,1.10
2019-06-08T01:31:44.706Z,1.10
2019-06-08T01:34:20.500Z,1.00
2019-06-08T01:36:52.650Z,0.90
2019-06-08T01:39:25.127Z,0.73
2019-06-08T01:41:57.803Z,0.70
2019-06-08T01:44:30.115Z,0.80
2019-06-08T01:47:02.628Z,1.17
2019-06-08T01:49:34.226Z,1.17
2019-06-08T01:52:05.806Z,1.17
2019-06-08T01:54:37.764Z,1.20
2019-06-08T01:57:14.134Z,1.00
2019-06-08T01:59:45.943Z,1.53
2019-06-08T02:02:20.200Z,0.90
2019-06-08T02:04:51.619Z,1.07
2019-06-08T02:07:24.235Z,1.07
2019-06-08T02:09:56.672Z,1.00
2019-06-08T02:12:31.165Z,1.23
2019-06-08T02:15:02.803Z,0.90
2019-06-08T02:17:35.589Z,0.93
2019-06-08T02:20:08.180Z,1.00
2019-06-08T02:22:39.628Z,0.90
2019-06-08T02:25:11.591Z,0.90
2019-06-08T02:27:43.151Z,1.30
2019-06-08T02:30:17.093Z,0.90
2019-06-08T02:32:55.156Z,0.93
2019-06-08T02:35:27.964Z,0.80
2019-06-08T02:37:59.668Z,0.67
2019-06-08T02:40:35.069Z,0.87
2019-06-08T02:43:13.660Z,0.77
2019-06-08T02:45:45.428Z,0.67
2019-06-08T02:48:16.943Z,1.00
2019-06-08T02:50:56.434Z,0.83
2019-06-08T02:53:32.105Z,0.87
2019-06-08T02:56:05.413Z,0.87
2019-06-08T02:58:42.017Z,0.90
2019-06-08T03:01:15.373Z,1.27
2019-06-08T03:03:48.936Z,0.90
2019-06-08T03:06:22.374Z,1.00
2019-06-08T03:08:59.037Z,1.10
2019-06-08T03:11:32.645Z,0.97
2019-06-08T03:14:08.343Z,1.00
2019-06-08T03:16:41.536Z,0.90
2019-06-08T03:19:21.590Z,0.70
2019-06-08T03:21:48.310Z,1.00
2019-06-08T03:24:20.287Z,1.00
2019-06-08T03:26:53.441Z,0.80
2019-06-08T03:29:25.152Z,0.80
2019-06-08T03:31:57.879Z,1.10
2019-06-08T03:34:34.617Z,0.80
2019-06-08T03:37:04.791Z,0.80
2019-06-08T03:39:38.936Z,0.90
2019-06-08T03:42:11.163Z,0.80
2019-06-08T03:44:44.752Z,0.80
2019-06-08T03:47:16.407Z,1.10
2019-06-08T03:49:56.721Z,1.00
2019-06-08T03:52:21.267Z,0.90
2019-06-08T03:54:53.006Z,0.63
2019-06-08T03:57:25.342Z,0.73
2019-06-08T04:00:00.139Z,0.90
2019-06-08T04:02:31.760Z,1.20
2019-06-08T04:05:03.032Z,1.10
2019-06-08T04:07:34.450Z,1.20
2019-06-08T04:10:06.371Z,0.97
2019-06-08T04:12:39.747Z,0.70
2019-06-08T04:15:12.606Z,0.90
2019-06-08T04:17:44.308Z,1.00
2019-06-08T04:20:16.441Z,1.03
2019-06-08T04:22:48.115Z,1.10
2019-06-08T04:25:20.273Z,1.00
2019-06-08T04:27:51.699Z,0.90
2019-06-08T04:30:23.285Z,0.90
2019-06-08T04:32:58.312Z,0.90
2019-06-08T04:35:29.701Z,1.07
2019-06-08T04:38:01.277Z,0.90
2019-06-08T04:40:33.251Z,1.03
2019-06-08T04:43:05.106Z,0.87
2019-06-08T04:45:38.624Z,0.77
2019-06-08T04:48:10.400Z,1.20
2019-06-08T04:50:43.076Z,0.90
2019-06-08T04:53:15.872Z,0.90
2019-06-08T04:55:49.344Z,0.80
2019-06-08T04:58:36.712Z,1.17
2019-06-08T05:01:08.126Z,0.93
2019-06-08T05:03:41.225Z,1.10
2019-06-08T05:06:13.454Z,1.10
2019-06-08T05:08:47.223Z,1.07
2019-06-08T05:11:22.864Z,0.90
2019-06-08T05:14:06.591Z,1.00
2019-06-08T05:16:40.927Z,0.90
2019-06-08T05:19:14.572Z,0.93
2019-06-08T05:21:47.490Z,1.20
2019-06-08T05:24:19.231Z,1.27
2019-06-08T05:26:52.572Z,1.00
2019-06-08T05:29:24.992Z,1.00
2019-06-08T05:31:56.793Z,0.90
2019-06-08T05:34:31.497Z,1.23
2019-06-08T05:37:05.626Z,0.63
2019-06-08T05:39:39.550Z,1.20
2019-06-08T05:42:11.338Z,0.80
2019-06-08T05:45:11.788Z,0.90
2019-06-08T05:47:53.281Z,1.07
2019-06-08T05:50:26.139Z,0.77
2019-06-08T05:52:57.983Z,1.17
2019-06-08T05:55:30.367Z,1.63
2019-06-08T05:58:01.921Z,1.20
2019-06-08T06:00:37.392Z,1.13
2019-06-08T06:03:09.030Z,0.90
2019-06-08T06:05:40.524Z,1.27
2019-06-08T06:08:18.969Z,1.20
2019-06-08T06:10:46.893Z,1.37
2019-06-08T06:13:18.712Z,1.37
2019-06-08T06:15:51.883Z,1.40
2019-06-08T06:18:26.393Z,0.93
2019-06-08T06:21:10.445Z,1.10
2019-06-08T06:23:34.550Z,1.30
2019-06-08T06:26:10.241Z,1.20
2019-06-08T06:28:49.690Z,1.20
2019-06-08T06:31:21.341Z,1.70
2019-06-08T06:33:53.160Z,1.03
2019-06-08T06:36:27.066Z,1.20
2019-06-08T06:38:59.461Z,0.90
2019-06-08T06:41:31.042Z,1.50
2019-06-08T06:44:07.884Z,1.00
2019-06-08T06:46:39.337Z,1.50
2019-06-08T06:49:10.965Z,1.10
2019-06-08T06:51:42.617Z,1.20
2019-06-08T06:54:15.339Z,1.00
2019-06-08T06:56:47.754Z,1.50
2019-06-08T06:59:20.698Z,0.87
2019-06-08T07:01:57.501Z,1.40
2019-06-08T07:04:29.917Z,1.30
2019-06-08T07:07:01.522Z,1.33
2019-06-08T07:09:32.756Z,1.13
2019-06-08T07:12:04.765Z,1.17
2019-06-08T07:14:39.264Z,1.30
2019-06-08T07:17:10.809Z,1.17
2019-06-08T07:19:46.376Z,1.40
2019-06-08T07:22:17.972Z,1.70
2019-06-08T07:24:50.701Z,1.13
2019-06-08T07:27:25.095Z,1.27
2019-06-08T07:29:56.615Z,1.60
2019-06-08T07:32:38.483Z,1.70
2019-06-08T07:35:10.781Z,1.40
2019-06-08T07:37:44.956Z,1.33
2019-06-08T07:40:23.160Z,1.47
2019-06-08T07:42:56.589Z,2.27
2019-06-08T07:45:33.064Z,1.70
2019-06-08T07:48:05.169Z,1.60
2019-06-08T07:50:42.271Z,1.50
2019-06-08T07:53:14.280Z,1.53
2019-06-08T07:55:50.098Z,1.33
2019-06-08T07:58:23.864Z,1.23
2019-06-08T08:01:07.707Z,1.50
2019-06-08T08:03:36.220Z,1.20
2019-06-08T08:06:11.445Z,1.20
2019-06-08T08:08:48.439Z,1.17
2019-06-08T08:11:23.548Z,1.70
2019-06-08T08:14:00.902Z,1.40
2019-06-08T08:16:37.182Z,1.47
2019-06-08T08:19:11.530Z,1.27
2019-06-08T08:21:43.401Z,1.87
2019-06-08T08:24:18.491Z,1.67
2019-06-08T08:26:54.382Z,1.50
2019-06-08T08:29:31.446Z,1.93
2019-06-08T08:32:02.680Z,0.87
2019-06-08T08:34:38.244Z,1.47
2019-06-08T08:37:17.542Z,1.50
2019-06-08T08:39:53.701Z,1.40
2019-06-08T08:42:33.751Z,1.17
2019-06-08T08:45:08.691Z,1.20
2019-06-08T08:47:41.027Z,1.17
2019-06-08T08:50:41.964Z,1.50
2019-06-08T08:53:39.612Z,1.17
2019-06-08T08:56:15.104Z,1.50
2019-06-08T08:58:50.996Z,1.90
2019-06-08T09:01:23.385Z,1.37
2019-06-08T09:04:03.299Z,2.13
2019-06-08T09:06:34.854Z,1.30
2019-06-08T09:09:13.922Z,1.30
2019-06-08T09:12:13.030Z,1.70
2019-06-08T09:14:47.964Z,1.20
2019-06-08T09:17:20.317Z,1.60
2019-06-08T09:19:53.953Z,1.80
2019-06-08T09:22:31.197Z,1.37
2019-06-08T09:25:04.549Z,1.37
2019-06-08T09:27:38.246Z,1.20
2019-06-08T09:30:09.920Z,1.87
2019-06-08T09:32:42.129Z,1.60
2019-06-08T09:35:14.153Z,1.20
2019-06-08T09:37:54.823Z,1.77
2019-06-08T09:41:03.452Z,1.40
2019-06-08T09:43:28.962Z,1.70
2019-06-08T09:46:09.143Z,1.80
2019-06-08T09:48:43.781Z,1.10
2019-06-08T09:51:18.503Z,1.23
2019-06-08T09:53:49.718Z,1.43
2019-06-08T09:56:23.844Z,1.40
2019-06-08T09:59:00.587Z,1.37
2019-06-08T10:02:00.990Z,1.30
2019-06-08T10:04:31.534Z,1.37
2019-06-08T10:07:04.283Z,1.50
2019-06-08T10:09:38.127Z,1.10
2019-06-08T10:12:11.956Z,1.40
2019-06-08T10:14:49.000Z,1.10
2019-06-08T10:17:22.737Z,1.00
2019-06-08T10:20:00.210Z,1.30
2019-06-08T10:22:29.622Z,1.60
2019-06-08T10:25:05.406Z,1.27
2019-06-08T10:27:38.459Z,1.37
2019-06-08T10:30:10.889Z,1.13
2019-06-08T10:32:42.745Z,1.67
2019-06-08T10:35:18.509Z,1.20
2019-06-08T10:37:55.637Z,1.87
2019-06-08T10:40:28.500Z,1.30
2019-06-08T10:43:01.477Z,1.20
2019-06-08T10:45:38.872Z,1.47
2019-06-08T10:48:10.533Z,1.83
2019-06-08T10:50:42.265Z,1.17
2019-06-08T10:53:16.543Z,1.00
2019-06-08T10:56:01.736Z,1.10
2019-06-08T10:58:34.306Z,1.60
2019-06-08T11:01:12.112Z,1.77
2019-06-08T11:03:43.197Z,1.13
2019-06-08T11:06:18.760Z,1.70
2019-06-08T11:08:50.033Z,1.40
2019-06-08T11:11:50.207Z,1.30
2019-06-08T11:14:25.762Z,1.60
2019-06-08T11:17:02.920Z,1.43
2019-06-08T11:19:37.677Z,1.10
2019-06-08T11:22:13.927Z,1.40
2019-06-08T11:24:58.812Z,1.37
2019-06-08T11:27:30.868Z,1.07
2019-06-08T11:30:15.432Z,1.00
2019-06-08T11:32:44.176Z,1.30
2019-06-08T11:35:47.032Z,1.30
2019-06-08T11:38:17.584Z,1.47
2019-06-08T11:40:52.911Z,1.43
2019-06-08T11:43:38.001Z,1.83
2019-06-08T11:46:21.942Z,1.77
2019-06-08T11:49:01.190Z,1.93
2019-06-08T11:51:37.856Z,1.40
2019-06-08T11:54:27.337Z,1.63
2019-06-08T11:56:48.240Z,1.37
2019-06-08T11:59:24.289Z,1.50
2019-06-08T12:01:58.485Z,1.37
2019-06-08T12:04:30.430Z,1.90
2019-06-08T12:07:02.270Z,1.47
2019-06-08T12:09:34.974Z,2.00
2019-06-08T12:12:16.197Z,1.87
2019-06-08T12:14:44.802Z,1.57
2019-06-08T12:17:21.800Z,1.77
2019-06-08T12:19:50.405Z,1.40
2019-06-08T12:22:22.637Z,1.73
2019-06-08T12:24:56.263Z,1.50
2019-06-08T12:27:35.940Z,1.40
2019-06-08T12:30:13.586Z,1.60
2019-06-08T12:32:40.173Z,1.40
2019-06-08T12:35:12.741Z,1.37
2019-06-08T12:37:45.175Z,1.60
2019-06-08T12:40:19.105Z,1.63
2019-06-08T12:42:50.670Z,1.80
2019-06-08T12:45:34.359Z,1.77
2019-06-08T12:48:19.578Z,1.80
2019-06-08T12:50:49.603Z,1.47
2019-06-08T12:53:25.334Z,1.40
2019-06-08T12:55:58.129Z,1.60
2019-06-08T12:58:30.565Z,1.43
2019-06-08T13:01:03.568Z,2.13
2019-06-08T13:03:37.839Z,1.50
2019-06-08T13:06:11.242Z,2.10
2019-06-08T13:08:42.610Z,1.70
2019-06-08T13:11:31.778Z,1.70
2019-06-08T13:14:23.877Z,1.90
2019-06-08T13:17:00.769Z,1.57
2019-06-08T13:19:30.675Z,1.40
2019-06-08T13:22:04.248Z,1.50
2019-06-08T13:24:37.623Z,1.60
2019-06-08T13:27:22.986Z,1.77
2019-06-08T13:29:53.941Z,1.97
2019-06-08T13:32:25.589Z,1.57
2019-06-08T13:34:58.447Z,1.67
2019-06-08T13:37:30.126Z,1.53
2019-06-08T13:40:08.213Z,1.50
2019-06-08T13:42:40.072Z,1.90
2019-06-08T13:45:16.247Z,1.67
2019-06-08T13:47:50.441Z,1.77
2019-06-08T13:50:24.813Z,1.77
2019-06-08T13:52:58.767Z,1.63
2019-06-08T13:55:47.706Z,1.70
2019-06-08T13:58:08.337Z,1.60
2019-06-08T14:00:39.841Z,1.67
2019-06-08T14:03:11.787Z,1.80
2019-06-08T14:05:47.815Z,1.60
2019-06-08T14:08:22.115Z,1.40
2019-06-08T14:10:52.605Z,1.83
2019-06-08T14:13:29.305Z,1.60
2019-06-08T14:16:02.036Z,1.77
2019-06-08T14:18:38.571Z,1.67
2019-06-08T14:21:10.967Z,1.70
2019-06-08T14:23:48.311Z,1.67
2019-06-08T14:26:20.231Z,2.23
2019-06-08T14:28:52.990Z,1.80
2019-06-08T14:31:31.911Z,1.70
2019-06-08T14:34:10.005Z,1.67
2019-06-08T14:36:41.617Z,2.00
2019-06-08T14:39:20.619Z,2.10
2019-06-08T14:41:57.995Z,1.77
2019-06-08T14:44:35.169Z,1.60
2019-06-08T14:47:17.054Z,1.70
2019-06-08T14:49:53.890Z,1.70
2019-06-08T14:52:25.923Z,1.83
2019-06-08T14:55:03.215Z,1.57
2019-06-08T14:57:37.562Z,1.67
2019-06-08T15:00:12.202Z,1.80
2019-06-08T15:02:43.060Z,1.30
2019-06-08T15:05:18.179Z,2.40
2019-06-08T15:07:52.675Z,2.03
2019-06-08T15:10:25.416Z,1.47
2019-06-08T15:12:58.780Z,1.97
2019-06-08T15:15:38.298Z,1.60
2019-06-08T15:18:13.263Z,1.50
2019-06-08T15:20:48.040Z,1.80
2019-06-08T15:23:22.093Z,1.80
2019-06-08T15:25:53.695Z,1.30
2019-06-08T15:28:31.648Z,1.23
2019-06-08T15:31:02.686Z,1.60
2019-06-08T15:33:34.078Z,1.87
2019-06-08T15:36:08.338Z,1.60
2019-06-08T15:38:43.072Z,1.67
2019-06-08T15:41:24.234Z,1.60
2019-06-08T15:43:57.806Z,1.40
2019-06-08T15:46:30.393Z,1.90
2019-06-08T15:49:08.454Z,2.13
2019-06-08T15:51:47.997Z,1.60
2019-06-08T15:54:22.792Z,2.17
2019-06-08T15:56:54.697Z,1.60
2019-06-08T15:59:31.186Z,1.57
2019-06-08T16:01:59.719Z,1.50
2019-06-08T16:04:40.864Z,1.53
2019-06-08T16:07:12.213Z,1.53
2019-06-08T16:09:45.585Z,2.23
2019-06-08T16:12:26.224Z,2.00
2019-06-08T16:15:06.016Z,1.73
2019-06-08T16:17:40.415Z,2.10
2019-06-08T16:20:13.302Z,1.80
2019-06-08T16:22:45.912Z,1.67
2019-06-08T16:25:18.008Z,1.80
2019-06-08T16:27:51.165Z,1.53
2019-06-08T16:30:24.725Z,1.50
2019-06-08T16:32:56.400Z,1.60
2019-06-08T16:35:29.544Z,1.93
2019-06-08T16:38:10.630Z,1.90
2019-06-08T16:40:43.582Z,1.70
2019-06-08T16:43:15.238Z,2.00
2019-06-08T16:45:50.851Z,2.00
2019-06-08T16:48:22.624Z,2.03
2019-06-08T16:50:55.058Z,2.77
2019-06-08T16:53:29.737Z,3.87
2019-06-08T16:56:01.536Z,3.13
2019-06-08T16:58:36.262Z,2.50
2019-06-08T17:01:17.119Z,4.90
2019-06-08T17:03:50.330Z,3.87
2019-06-08T17:06:29.101Z,1.90
2019-06-08T17:09:02.104Z,3.00
2019-06-08T17:11:47.317Z,3.00
2019-06-08T17:14:20.493Z,3.13
2019-06-08T17:16:53.638Z,2.30
2019-06-08T17:19:26.123Z,2.70
2019-06-08T17:22:05.376Z,2.00
2019-06-08T17:24:38.965Z,2.60
2019-06-08T17:27:25.786Z,2.20
2019-06-08T17:29:43.985Z,2.03
2019-06-08T17:32:17.402Z,1.90
2019-06-08T17:34:57.743Z,1.60
2019-06-08T17:37:29.572Z,1.60
2019-06-08T17:40:22.446Z,1.50
2019-06-08T17:42:55.513Z,1.70
2019-06-08T17:45:32.293Z,1.63
2019-06-08T17:48:07.679Z,1.97
2019-06-08T17:50:40.792Z,1.70
2019-06-08T17:53:14.955Z,1.80
2019-06-08T17:55:46.360Z,1.33
2019-06-08T17:58:21.771Z,1.97
2019-06-08T18:00:55.614Z,2.50
2019-06-08T18:03:27.958Z,1.70
2019-06-08T18:05:59.613Z,1.80
2019-06-08T18:08:31.183Z,1.80
2019-06-08T18:11:02.715Z,1.67
2019-06-08T18:13:40.788Z,1.70
2019-06-08T18:16:11.475Z,1.80
2019-06-08T18:18:45.354Z,1.70
2019-06-08T18:21:17.693Z,2.07
2019-06-08T18:23:49.930Z,1.77
2019-06-08T18:26:30.365Z,2.10
2019-06-08T18:29:05.751Z,2.10
2019-06-08T18:31:48.099Z,1.77
2019-06-08T18:34:21.520Z,2.03
2019-06-08T18:36:54.843Z,1.70
2019-06-08T18:39:40.066Z,2.00
2019-06-08T18:42:41.511Z,2.30
2019-06-08T18:45:18.193Z,2.00
2019-06-08T18:47:51.522Z,2.20
2019-06-08T18:50:24.710Z,1.77
2019-06-08T18:52:59.321Z,1.97
2019-06-08T18:55:33.923Z,1.80
2019-06-08T18:58:20.440Z,1.50
2019-06-08T19:00:43.201Z,1.90
2019-06-08T19:03:43.164Z,1.70
2019-06-08T19:06:14.076Z,1.90
2019-06-08T19:08:50.926Z,1.77
2019-06-08T19:11:22.518Z,1.93
2019-06-08T19:13:54.659Z,2.00
2019-06-08T19:16:28.519Z,2.20
2019-06-08T19:19:31.481Z,1.70
2019-06-08T19:22:12.734Z,2.40
2019-06-08T19:24:50.790Z,2.13
2019-06-08T19:27:22.905Z,2.50
2019-06-08T19:29:57.596Z,3.40
2019-06-08T19:32:32.332Z,3.93
2019-06-08T19:35:07.475Z,3.37
2019-06-08T19:37:43.954Z,3.63
2019-06-08T19:40:21.252Z,3.57
2019-06-08T19:42:57.270Z,3.47
2019-06-08T19:45:38.221Z,3.57
2019-06-08T19:48:09.429Z,3.73
2019-06-08T19:50:42.778Z,4.10
2019-06-08T19:53:18.308Z,3.70
2019-06-08T19:55:53.940Z,3.57
2019-06-08T19:58:33.396Z,3.47
2019-06-08T20:01:07.949Z,4.20
2019-06-08T20:03:46.935Z,3.50
2019-06-08T20:06:27.933Z,5.10
2019-06-08T20:09:01.996Z,4.10
2019-06-08T20:11:46.905Z,5.07
2019-06-08T20:14:26.578Z,4.50
2019-06-08T20:16:59.626Z,4.23
2019-06-08T20:19:40.606Z,4.07
2019-06-08T20:22:12.526Z,5.27
2019-06-08T20:24:44.160Z,5.10
2019-06-08T20:27:17.616Z,6.20
2019-06-08T20:29:53.586Z,6.80
2019-06-08T20:32:32.994Z,5.77
2019-06-08T20:35:08.292Z,5.03
2019-06-08T20:37:41.531Z,5.23
2019-06-08T20:40:18.029Z,5.10
2019-06-08T20:42:54.782Z,6.53
2019-06-08T20:45:29.246Z,5.93
2019-06-08T20:48:00.975Z,6.60
2019-06-08T20:50:33.108Z,6.97
2019-06-08T20:53:11.046Z,7.37
2019-06-08T20:55:54.164Z,6.17
2019-06-08T20:58:37.028Z,6.40
2019-06-08T21:01:10.869Z,6.10
2019-06-08T21:03:45.594Z,6.30
2019-06-08T21:06:22.065Z,6.87
2019-06-08T21:08:54.825Z,5.77
2019-06-08T21:11:30.700Z,4.87
2019-06-08T21:14:10.442Z,5.07
2019-06-08T21:16:50.275Z,5.50
2019-06-08T21:19:28.176Z,5.03
2019-06-08T21:22:04.489Z,6.00
2019-06-08T21:24:39.448Z,5.50
2019-06-08T21:27:12.453Z,8.43
2019-06-08T21:29:55.782Z,8.57
2019-06-08T21:32:40.627Z,9.03
2019-06-08T21:35:12.747Z,6.67
2019-06-08T21:37:50.683Z,7.77
2019-06-08T21:40:19.449Z,7.73
2019-06-08T21:42:53.598Z,7.00
2019-06-08T21:45:28.235Z,7.40
2019-06-08T21:48:03.886Z,6.97
2019-06-08T21:50:53.824Z,5.33
2019-06-08T21:53:30.235Z,4.40
2019-06-08T21:56:13.055Z,5.70
2019-06-08T21:58:51.462Z,5.13
2019-06-08T22:01:28.674Z,5.30
2019-06-08T22:04:03.181Z,4.80
2019-06-08T22:06:37.524Z,5.20
2019-06-08T22:09:13.967Z,4.90
2019-06-08T22:11:52.489Z,5.47
2019-06-08T22:14:30.258Z,5.20
2019-06-08T22:17:08.207Z,5.10
2019-06-08T22:19:48.884Z,6.20
2019-06-08T22:22:23.152Z,5.07
2019-06-08T22:24:59.349Z,4.53
2019-06-08T22:27:30.237Z,4.10
2019-06-08T22:30:10.687Z,4.43
2019-06-08T22:32:40.042Z,4.20
2019-06-08T22:35:16.450Z,4.67
2019-06-08T22:37:48.973Z,4.60
2019-06-08T22:40:28.078Z,4.60
2019-06-08T22:43:08.003Z,4.67
2019-06-08T22:45:40.047Z,5.47
2019-06-08T22:48:13.106Z,4.67
2019-06-08T22:50:48.839Z,4.83
2019-06-08T22:53:21.054Z,4.27
2019-06-08T22:55:59.345Z,4.43
2019-06-08T22:58:31.192Z,4.23
2019-06-08T23:01:07.742Z,4.40
2019-06-08T23:03:39.110Z,3.70
2019-06-08T23:06:23.639Z,4.37
2019-06-08T23:09:00.746Z,3.80
2019-06-08T23:11:31.080Z,3.50
2019-06-08T23:14:12.945Z,4.40
2019-06-08T23:16:47.688Z,4.63
2019-06-08T23:19:21.168Z,3.70
2019-06-08T23:21:55.230Z,4.00
2019-06-08T23:24:27.486Z,3.30
2019-06-08T23:26:59.994Z,3.77
2019-06-08T23:29:38.091Z,3.67
2019-06-08T23:32:11.718Z,3.90
2019-06-08T23:34:43.230Z,3.60
2019-06-08T23:37:14.807Z,4.13
2019-06-08T23:39:51.338Z,4.07
2019-06-08T23:42:23.082Z,3.73
2019-06-08T23:44:54.330Z,3.60
2019-06-08T23:47:27.419Z,3.80
2019-06-08T23:50:00.725Z,3.60
2019-06-08T23:52:32.173Z,3.50
2019-06-08T23:55:08.113Z,3.97
2019-06-08T23:57:38.809Z,3.63
